Flight Track Log - Related Links

Times and Time Zones

All times are in EST time to prevent confusion due to time zone crossing. See the AFR7869 flight status page for this flight to view local times or setup timezone preferences in your user account.

Time Position Orientation Groundspeed Altitude Reporting Facility
EST Latitude Longitude Course Direction KTS MPH feet Rate Location/Type
Sat 06:47:00 AM 47.7831 6.5573 224° Southwest  Level Estimated
Sat 06:48:00 AM 47.7070 6.4519 223° Southwest  Level Estimated
Sat 06:49:00 AM 47.6308 6.3468 223° Southwest  Level Estimated
Sat 06:50:00 AM 47.5546 6.2420 223° Southwest  Level Estimated
Sat 06:51:00 AM 47.4782 6.1376 223° Southwest  Level Estimated
Sat 06:52:00 AM 47.4018 6.0334 223° Southwest  Level Estimated
Sat 06:53:00 AM 47.3252 5.9296 223° Southwest  Level Estimated
Sat 06:54:00 AM 47.2486 5.8260 223° Southwest  Level Estimated
Sat 06:55:00 AM 47.1719 5.7227 222° Southwest  Level Estimated
Sat 06:56:00 AM 47.0951 5.6198 222° Southwest  Level Estimated
Sat 06:57:00 AM 47.0181 5.5171 222° Southwest  Level Estimated
Sat 06:58:00 AM 46.9411 5.4148 222° Southwest  Level Estimated
Sat 06:59:00 AM 46.8640 5.3127 222° Southwest  Level Estimated
Sat 07:00:00 AM 46.7868 5.2109 222° Southwest  Level Estimated
Sat 07:01:00 AM 46.7096 5.1094 222° Southwest  Level Estimated
Sat 07:02:00 AM 46.6322 5.0082 222° Southwest  Level Estimated
Sat 07:03:00 AM 46.5547 4.9073 222° Southwest  Level Estimated
Sat 07:04:00 AM 46.4772 4.8067 222° Southwest  Level Estimated
Sat 07:05:00 AM 46.3996 4.7063 222° Southwest  Level Estimated
Sat 07:06:00 AM 46.3219 4.6063 222° Southwest  Level Estimated
Sat 07:07:00 AM 46.2440 4.5065 222° Southwest  Level Estimated
Sat 07:08:00 AM 46.1662 4.4071 222° Southwest  Level Estimated
Sat 07:09:00 AM 46.0882 4.3079 221° Southwest  Level Estimated
Sat 07:10:00 AM 46.0101 4.2089 221° Southwest  Level Estimated
Sat 07:11:00 AM 45.9320 4.1103 221° Southwest  Level Estimated
Sat 07:12:00 AM 45.8704 4.0328 221° Southwest  Level Estimated
Sat 07:13:00 AM 45.8087 3.9555 221° Southwest  Level Estimated
Sat 07:14:00 AM 45.7470 3.8784 221° Southwest  Level Estimated
Sat 07:15:00 AM 45.6852 3.8014 221° Southwest  Level Estimated
Sat 07:16:00 AM 45.6234 3.7246 221° Southwest  Level Estimated
Sat 07:17:00 AM 45.5616 3.6480 221° Southwest  Level Estimated
Sat 07:18:00 AM 45.4997 3.5715 221° Southwest  Level Estimated
Sat 07:19:00 AM 45.4377 3.4952 221° Southwest  Level Estimated
Sat 07:20:00 AM 45.3757 3.4191 221° Southwest  Level Estimated
Sat 07:21:00 AM 45.3136 3.3431 221° Southwest  Level Estimated
Sat 07:22:00 AM 45.2515 3.2673 221° Southwest  Level Estimated
Sat 07:23:00 AM 45.1894 3.1917 221° Southwest  Level Estimated
Sat 07:24:00 AM 45.1272 3.1163 221° Southwest  Level Estimated
Sat 07:25:00 AM 45.0649 3.0410 221° Southwest  Level Estimated
Sat 07:26:00 AM 45.0026 2.9658 220° Southwest  Level Estimated
Sat 07:27:00 AM 44.9402 2.8909 220° Southwest  Level Estimated
Sat 07:28:00 AM 44.8778 2.8160 220° Southwest  Level Estimated
Sat 07:29:00 AM 44.8154 2.7414 220° Southwest  Level Estimated
Sat 07:30:00 AM 44.7528 2.6669 220° Southwest  Level Estimated
Sat 07:31:00 AM 44.6903 2.5926 220° Southwest  Level Estimated
Sat 07:32:00 AM 44.6277 2.5184 220° Southwest  Level Estimated
Sat 07:33:00 AM 44.5650 2.4444 220° Southwest  Level Estimated
Sat 07:34:00 AM 44.5023 2.3706 220° Southwest  Level Estimated
Sat 07:35:00 AM 44.4396 2.2969 220° Southwest  Level Estimated
Sat 07:36:00 AM 44.3768 2.2234 220° Southwest  Level Estimated
Sat 07:37:00 AM 44.3140 2.1500 220° Southwest  Level Estimated
Sat 07:38:00 AM 44.2511 2.0768 220° Southwest  Level Estimated
Sat 07:39:00 AM 44.1881 2.0037 220° Southwest  Level Estimated
Sat 07:40:00 AM 44.1252 1.9308 220° Southwest  Level Estimated
Sat 07:41:00 AM 44.0621 1.8581 220° Southwest  Level Estimated
Sat 07:42:00 AM 43.9991 1.7855 220° Southwest  Level Estimated
Sat 07:43:00 AM 43.9359 1.7131 220° Southwest  Level Estimated
Sat 07:44:00 AM 43.8728 1.6408 220° Southwest  Level Estimated
Sat 07:45:00 AM 43.8096 1.5687 219° Southwest  Level Estimated
Sat 07:46:00 AM 43.7463 1.4967 219° Southwest  Level Estimated
Sat 07:47:00 AM 43.6830 1.4248 219° Southwest  Level Estimated
Sat 07:48:00 AM 43.6291 1.3638 219° Southwest  Level Estimated
Sat 07:49:00 AM 43.6291 1.3638 188° South  Level Estimated
Sat 07:50:00 AM 43.6291 1.3638 188° South  Level Estimated
Sat 07:51:00 AM 43.6291 1.3638 188° South  Level Estimated
Sat 07:52:00 AM 43.6291 1.3638 188° South  Level Estimated
Sat 07:53:00 AM 43.6291 1.3638 188° South  Level Estimated
Sat 07:54:00 AM 43.6291 1.3638 188° South  Level Estimated
Sat 07:55:00 AM 43.6291 1.3638 188° South  Level Estimated
Sat 07:56:00 AM 43.6291 1.3638 188° South  Level Estimated
Sat 07:57:00 AM 43.6291 1.3638 188° South  Level Estimated
Sat 07:58:00 AM 43.6291 1.3638 188° South  Level Estimated
Sat 07:59:00 AM 43.6291 1.3638 188° South  Level Estimated
Sat 08:00:00 AM 43.6291 1.3638 188° South  Level Estimated
Sat 08:01:00 AM 43.6291 1.3638 188° South  Level Estimated
Sat 08:02:00 AM 43.6291 1.3638 188° South  Level Estimated
Sat 08:03:00 AM 43.6291 1.3638 188° South  Level Estimated
Sat 08:04:00 AM 43.6291 1.3638 188° South  Level Estimated
Sat 08:05:00 AM 43.6291 1.3638 188° South  Level Estimated

Login

Don't have an account? Register now (free) for customized features, flight alerts, and more!